Time;durP1;ratioP1;P1;durP2;ratioP2;P2;SDS_P1;SDS_P2;PMS_P1;PMS_P2;Temp;Humidity;BMP_temperature;BMP_pressure;BME280_temperature;BME280_humidity;BME280_pressure;Samples;Min_cycle;Max_cycle;Signal;HPM_P1;HPM_P2
2022/10/21 00:02:09;;;;;;;41.72;23.77;;;11.70;99.90;;;;;;5107794;28;20857;-76
2022/10/21 00:04:34;;;;;;;44.93;24.87;;;11.70;99.90;;;;;;5109672;27;20401;-76
2022/10/21 00:07:00;;;;;;;40.58;23.67;;;11.70;99.90;;;;;;5107498;28;20462;-76
2022/10/21 00:09:25;;;;;;;40.77;23.80;;;11.70;99.90;;;;;;5090119;28;20400;-76
2022/10/21 00:11:51;;;;;;;38.92;23.48;;;11.60;99.90;;;;;;5109400;27;20399;-76
2022/10/21 00:14:17;;;;;;;41.53;23.80;;;11.60;99.90;;;;;;5108634;28;20910;-76
2022/10/21 00:16:42;;;;;;;41.57;24.23;;;11.60;99.90;;;;;;5116116;27;20624;-77
2022/10/21 00:19:08;;;;;;;41.13;24.07;;;11.60;99.90;;;;;;5107088;28;20404;-76
2022/10/21 00:21:35;;;;;;;44.67;24.70;;;11.60;99.90;;;;;;5106358;28;20435;-76
2022/10/21 00:24:01;;;;;;;40.05;23.92;;;11.60;99.90;;;;;;5107294;28;20442;-76
2022/10/21 00:26:27;;;;;;;39.30;23.70;;;11.60;99.90;;;;;;5106464;28;20952;-76
2022/10/21 00:28:56;;;;;;;41.28;24.00;;;11.60;99.90;;;;;;5107318;28;20409;-76
2022/10/21 00:31:23;;;;;;;42.42;23.75;;;11.60;99.90;;;;;;5106119;28;20894;-76
2022/10/21 00:33:48;;;;;;;41.15;22.75;;;11.60;99.90;;;;;;5107160;28;20407;-76
2022/10/21 00:36:14;;;;;;;41.27;23.13;;;11.60;99.90;;;;;;5105872;28;20409;-76
2022/10/21 00:38:42;;;;;;;40.03;23.45;;;11.60;99.90;;;;;;5106727;28;20463;-76
2022/10/21 00:41:08;;;;;;;36.03;22.52;;;11.60;99.90;;;;;;5117790;27;20424;-76
2022/10/21 00:44:02;;;;;;;38.77;22.53;;;11.70;99.90;;;;;;5111047;28;20396;-76
2022/10/21 00:46:45;;;;;;;39.03;22.75;;;11.70;99.90;;;;;;5099796;28;20427;-77
2022/10/21 00:49:18;;;;;;;39.33;23.35;;;11.70;99.90;;;;;;5107880;28;20412;-76
2022/10/21 00:51:46;;;;;;;41.50;23.65;;;11.70;99.90;;;;;;5105343;28;20393;-76
2022/10/21 00:54:13;;;;;;;36.50;22.02;;;11.70;99.90;;;;;;5106689;28;20765;-76
2022/10/21 00:56:42;;;;;;;41.93;23.27;;;11.70;99.90;;;;;;5107976;28;20396;-76
2022/10/21 00:59:08;;;;;;;37.25;22.17;;;11.70;99.90;;;;;;5111063;28;20427;-76
2022/10/21 01:01:33;;;;;;;35.87;22.23;;;11.70;99.90;;;;;;5107871;28;20432;-76
2022/10/21 01:04:00;;;;;;;37.88;23.00;;;11.70;99.90;;;;;;5105722;28;20406;-76
2022/10/21 01:06:26;;;;;;;36.83;22.33;;;11.70;99.90;;;;;;5106962;28;20861;-76
2022/10/21 01:08:53;;;;;;;35.83;22.02;;;11.70;99.90;;;;;;5107342;28;20469;-76
2022/10/21 01:11:21;;;;;;;36.40;21.58;;;11.70;99.90;;;;;;5114389;27;20538;-76
2022/10/21 01:14:01;;;;;;;39.10;22.63;;;11.70;99.90;;;;;;5112283;27;20838;-76
2022/10/21 01:16:36;;;;;;;35.55;21.90;;;11.80;99.90;;;;;;5107629;28;20412;-76
2022/10/21 01:19:23;;;;;;;38.70;22.15;;;11.70;99.90;;;;;;5107781;28;20404;-76
2022/10/21 01:22:17;;;;;;;37.65;21.48;;;11.80;99.90;;;;;;5105273;28;20405;-76
2022/10/21 01:25:15;;;;;;;37.08;21.83;;;11.70;99.90;;;;;;5107634;28;20448;-76
2022/10/21 01:27:59;;;;;;;35.35;21.80;;;11.70;99.90;;;;;;5109180;28;20792;-76
2022/10/21 01:30:36;;;;;;;35.33;22.07;;;11.80;99.90;;;;;;5114800;28;20434;-76
2022/10/21 01:33:20;;;;;;;35.10;22.23;;;11.70;99.90;;;;;;5112161;28;20427;-76
2022/10/21 01:36:00;;;;;;;39.20;22.00;;;11.70;99.90;;;;;;5107404;28;20436;-76
2022/10/21 01:38:47;;;;;;;37.00;21.65;;;11.70;99.90;;;;;;5118282;27;20440;-76
2022/10/21 01:41:16;;;;;;;37.30;21.92;;;11.70;99.90;;;;;;5102987;28;20428;-76
2022/10/21 01:44:07;;;;;;;39.28;22.42;;;11.70;99.90;;;;;;5111345;28;20408;-76
2022/10/21 01:46:56;;;;;;;36.13;21.83;;;11.60;99.90;;;;;;5099361;28;20473;-76
2022/10/21 01:49:32;;;;;;;38.83;22.77;;;11.60;99.90;;;;;;5111220;28;20917;-76
2022/10/21 01:51:59;;;;;;;38.90;21.80;;;11.60;99.90;;;;;;5109683;28;20412;-76
2022/10/21 01:54:38;;;;;;;39.88;22.77;;;11.60;99.90;;;;;;5109970;28;20404;-76
2022/10/21 01:57:06;;;;;;;36.03;21.67;;;11.60;99.90;;;;;;5109684;28;20491;-76
2022/10/21 01:59:33;;;;;;;37.25;21.50;;;11.60;99.90;;;;;;5111057;28;20538;-76
2022/10/21 02:02:03;;;;;;;37.92;21.55;;;11.60;99.90;;;;;;5110167;28;20407;-76
2022/10/21 02:04:32;;;;;;;37.17;22.33;;;11.60;99.90;;;;;;5109710;28;20478;-76
2022/10/21 02:06:58;;;;;;;34.58;21.10;;;11.60;99.90;;;;;;5109417;28;20487;-76
2022/10/21 02:09:23;;;;;;;37.33;22.33;;;11.60;99.90;;;;;;5111358;27;20869;-76
2022/10/21 02:11:52;;;;;;;37.95;22.13;;;11.60;99.90;;;;;;5109236;28;21025;-76
2022/10/21 02:14:43;;;;;;;35.20;21.80;;;11.60;99.90;;;;;;5109877;28;20876;-76
2022/10/21 02:17:12;;;;;;;36.37;21.77;;;11.60;99.90;;;;;;5098645;28;20415;-76
2022/10/21 02:19:38;;;;;;;37.35;21.73;;;11.60;99.90;;;;;;5122419;27;20422;-76
2022/10/21 02:22:07;;;;;;;38.00;21.30;;;11.70;99.90;;;;;;5108773;28;20484;-76
2022/10/21 02:24:46;;;;;;;36.10;21.85;;;11.70;99.90;;;;;;5109352;28;20928;-76
2022/10/21 02:27:11;;;;;;;38.05;21.48;;;11.70;99.90;;;;;;5109573;28;20925;-76
2022/10/21 02:29:41;;;;;;;36.50;21.07;;;11.70;99.90;;;;;;5110302;28;20407;-76
2022/10/21 02:32:12;;;;;;;35.93;21.20;;;11.70;99.90;;;;;;5109400;28;20440;-76
2022/10/21 02:35:00;;;;;;;39.00;21.65;;;11.70;99.90;;;;;;5108177;28;20412;-76
2022/10/21 02:37:39;;;;;;;33.40;20.90;;;11.70;99.90;;;;;;5078574;28;20412;-76
2022/10/21 02:40:14;;;;;;;35.97;22.38;;;11.80;99.90;;;;;;5108975;28;20431;-76
2022/10/21 02:42:46;;;;;;;34.28;21.02;;;11.80;99.90;;;;;;5109061;28;20835;-76
2022/10/21 02:45:11;;;;;;;39.97;21.83;;;11.80;99.90;;;;;;5109153;28;20404;-77
2022/10/21 02:47:38;;;;;;;36.70;20.13;;;11.80;99.90;;;;;;5102601;28;20460;-76
2022/10/21 02:50:05;;;;;;;35.47;20.65;;;11.90;99.90;;;;;;5108164;28;20500;-76
2022/10/21 02:52:30;;;;;;;31.43;19.73;;;11.90;99.90;;;;;;5108129;28;20404;-76
2022/10/21 02:54:56;;;;;;;34.38;20.48;;;12.00;99.90;;;;;;5109327;28;20395;-76
2022/10/21 02:57:22;;;;;;;35.70;20.60;;;12.00;99.90;;;;;;5110008;28;20948;-76
2022/10/21 02:59:47;;;;;;;31.92;19.80;;;12.10;99.90;;;;;;5108774;27;20827;-76
2022/10/21 03:02:13;;;;;;;31.57;20.30;;;12.10;99.90;;;;;;5109482;27;20488;-76
2022/10/21 03:04:38;;;;;;;33.03;20.27;;;12.10;99.90;;;;;;5117014;27;20766;-76
2022/10/21 03:07:04;;;;;;;30.77;20.23;;;12.10;99.90;;;;;;5108374;28;20408;-76
2022/10/21 03:09:29;;;;;;;33.25;20.48;;;12.10;99.90;;;;;;5108454;28;20404;-76
2022/10/21 03:11:55;;;;;;;36.87;20.17;;;12.10;99.90;;;;;;5109941;28;20401;-76
2022/10/21 03:14:21;;;;;;;31.45;20.35;;;12.10;99.90;;;;;;5108586;28;20405;-76
2022/10/21 03:16:46;;;;;;;32.87;20.07;;;12.10;99.90;;;;;;5109136;28;20408;-76
2022/10/21 03:19:12;;;;;;;32.50;19.60;;;12.00;99.90;;;;;;5108504;28;20401;-76
2022/10/21 03:21:37;;;;;;;34.80;20.00;;;12.00;99.90;;;;;;5108037;28;20427;-76
2022/10/21 03:24:03;;;;;;;35.95;20.10;;;12.00;99.90;;;;;;5108192;28;20392;-76
2022/10/21 03:26:29;;;;;;;40.23;21.07;;;12.00;99.90;;;;;;5107802;28;20879;-75
2022/10/21 03:28:54;;;;;;;55.05;23.48;;;12.00;99.90;;;;;;5109337;28;20402;-76
2022/10/21 03:31:20;;;;;;;56.80;24.33;;;12.00;99.90;;;;;;5107634;28;20913;-76
2022/10/21 03:33:46;;;;;;;53.45;22.60;;;12.00;99.90;;;;;;5107702;28;20446;-76
2022/10/21 03:36:11;;;;;;;47.03;22.40;;;12.00;99.90;;;;;;5106585;28;20408;-76
2022/10/21 03:38:37;;;;;;;43.83;19.37;;;12.10;99.90;;;;;;5110392;27;20447;-76
2022/10/21 03:41:02;;;;;;;45.92;19.38;;;12.20;99.90;;;;;;5107643;28;20467;-76
2022/10/21 03:43:28;;;;;;;53.47;23.70;;;12.20;99.90;;;;;;5106594;28;20922;-76
2022/10/21 03:45:53;;;;;;;49.78;23.42;;;12.30;99.90;;;;;;5106380;28;20400;-76
2022/10/21 03:48:19;;;;;;;38.77;18.47;;;12.20;99.90;;;;;;5107159;28;20460;-76
2022/10/21 03:50:45;;;;;;;47.55;19.38;;;12.20;99.90;;;;;;5107140;27;20738;-76
2022/10/21 03:53:10;;;;;;;58.07;20.33;;;12.20;99.90;;;;;;5115039;27;20404;-76
2022/10/21 03:55:36;;;;;;;69.35;21.08;;;12.20;99.90;;;;;;5107570;28;20400;-76
2022/10/21 03:58:01;;;;;;;54.03;19.77;;;12.20;99.90;;;;;;5108495;28;20396;-76
2022/10/21 04:00:27;;;;;;;95.38;27.70;;;12.20;99.90;;;;;;5106963;28;20424;-76
2022/10/21 04:02:53;;;;;;;84.40;26.53;;;12.20;99.90;;;;;;5108851;28;20924;-76
2022/10/21 04:05:18;;;;;;;53.42;23.10;;;12.20;99.90;;;;;;5106890;28;20754;-76
2022/10/21 04:07:44;;;;;;;62.90;24.03;;;12.20;99.90;;;;;;5107908;28;20465;-76
2022/10/21 04:10:10;;;;;;;39.20;17.90;;;12.20;99.90;;;;;;5107795;28;20940;-76
2022/10/21 04:12:36;;;;;;;47.85;18.70;;;12.20;99.90;;;;;;5107262;28;21225;-76
2022/10/21 04:15:01;;;;;;;51.63;19.80;;;12.20;99.90;;;;;;5109066;28;20396;-76
2022/10/21 04:17:27;;;;;;;47.38;18.75;;;12.30;99.90;;;;;;5107159;28;20454;-76
2022/10/21 04:19:53;;;;;;;42.10;18.30;;;12.20;99.90;;;;;;5107216;28;20427;-76
2022/10/21 04:22:19;;;;;;;42.38;17.92;;;12.20;99.90;;;;;;5107101;28;20436;-76
2022/10/21 04:24:44;;;;;;;41.93;17.83;;;12.20;99.90;;;;;;5108323;28;20416;-76
2022/10/21 04:27:10;;;;;;;50.47;22.45;;;12.30;99.90;;;;;;5108956;28;20848;-76
2022/10/21 04:29:35;;;;;;;53.00;23.93;;;12.40;99.90;;;;;;5107804;28;20404;-76
2022/10/21 04:32:01;;;;;;;54.80;24.50;;;12.40;99.90;;;;;;5109282;28;21191;-75
2022/10/21 04:34:26;;;;;;;55.17;24.27;;;12.40;99.90;;;;;;5106625;28;20412;-76
2022/10/21 04:36:52;;;;;;;57.53;24.63;;;12.40;99.90;;;;;;5109878;28;20481;-76
2022/10/21 04:39:18;;;;;;;53.27;23.63;;;12.40;99.90;;;;;;5106647;28;20469;-76
2022/10/21 04:41:44;;;;;;;50.72;23.77;;;12.40;99.90;;;;;;5097567;28;20433;-76
2022/10/21 04:44:10;;;;;;;56.15;24.10;;;12.40;99.90;;;;;;5104750;28;20926;-76
2022/10/21 04:46:36;;;;;;;50.33;23.33;;;12.40;99.90;;;;;;5107062;28;20401;-75
2022/10/21 04:49:01;;;;;;;55.38;23.75;;;12.40;99.90;;;;;;5108328;28;20471;-76
2022/10/21 04:51:27;;;;;;;63.03;25.20;;;12.40;99.90;;;;;;5107113;28;20422;-76
2022/10/21 04:53:52;;;;;;;54.43;23.93;;;12.40;99.90;;;;;;5089858;28;20834;-76
2022/10/21 04:56:18;;;;;;;54.90;24.07;;;12.40;99.90;;;;;;5107581;28;20415;-76
2022/10/21 04:58:44;;;;;;;54.25;24.08;;;12.40;99.90;;;;;;5107968;28;20404;-76
2022/10/21 05:01:09;;;;;;;61.20;24.30;;;12.40;99.90;;;;;;5108457;28;20416;-76
2022/10/21 05:03:35;;;;;;;54.42;23.90;;;12.30;99.90;;;;;;5119735;27;20400;-76
2022/10/21 05:06:01;;;;;;;55.97;24.33;;;12.30;99.90;;;;;;5108151;28;20545;-76
2022/10/21 05:08:26;;;;;;;67.57;25.02;;;12.30;99.90;;;;;;5106447;28;20401;-76
2022/10/21 05:10:59;;;;;;;57.73;23.87;;;12.20;99.90;;;;;;5108149;28;20404;-75
2022/10/21 05:13:26;;;;;;;57.15;23.65;;;12.30;99.90;;;;;;5108807;28;20857;-76
2022/10/21 05:15:55;;;;;;;60.85;23.85;;;12.20;99.90;;;;;;5111827;27;20396;-76
2022/10/21 05:18:21;;;;;;;58.10;23.90;;;12.20;99.90;;;;;;5110025;28;20409;-76
2022/10/21 05:20:51;;;;;;;65.70;24.80;;;12.10;99.90;;;;;;5110169;28;20549;-76
2022/10/21 05:23:17;;;;;;;52.22;23.75;;;12.10;99.90;;;;;;5102502;28;20544;-77
2022/10/21 05:25:44;;;;;;;52.27;24.00;;;12.10;99.90;;;;;;5110581;28;20424;-78
2022/10/21 05:28:09;;;;;;;53.30;23.60;;;12.10;99.90;;;;;;5111775;28;20743;-78
2022/10/21 05:30:35;;;;;;;57.30;24.30;;;12.10;99.90;;;;;;5117421;27;20402;-78
2022/10/21 05:33:00;;;;;;;62.47;24.55;;;12.10;99.90;;;;;;5111786;28;20415;-77
2022/10/21 05:35:26;;;;;;;57.93;24.17;;;12.10;99.90;;;;;;5104567;27;20877;-78
2022/10/21 05:37:52;;;;;;;57.78;24.65;;;12.10;99.90;;;;;;5083792;28;20424;-75
2022/10/21 05:40:17;;;;;;;63.87;24.67;;;12.10;99.90;;;;;;5109220;28;20434;-75
2022/10/21 05:42:44;;;;;;;64.53;25.00;;;12.10;99.90;;;;;;5097530;27;20753;-75
2022/10/21 05:45:10;;;;;;;61.28;24.40;;;12.10;99.90;;;;;;5111654;28;20402;-75
2022/10/21 05:47:37;;;;;;;61.20;25.13;;;12.10;99.90;;;;;;5111394;28;21196;-75
2022/10/21 05:50:02;;;;;;;60.30;25.43;;;12.10;99.90;;;;;;5110739;28;20411;-75
2022/10/21 05:52:28;;;;;;;69.95;26.08;;;12.10;99.90;;;;;;5111091;28;20404;-74
2022/10/21 05:54:54;;;;;;;74.10;25.45;;;12.10;99.90;;;;;;5111274;28;20396;-75
2022/10/21 05:57:19;;;;;;;71.07;25.60;;;12.10;99.90;;;;;;5110641;28;20826;-75
2022/10/21 05:59:45;;;;;;;61.45;25.17;;;12.00;99.90;;;;;;5111286;28;20459;-75
2022/10/21 06:02:10;;;;;;;57.70;24.33;;;12.00;99.90;;;;;;5092296;28;20420;-75
2022/10/21 06:04:36;;;;;;;62.87;24.90;;;12.00;99.90;;;;;;5092557;28;20416;-75
2022/10/21 06:07:02;;;;;;;64.22;24.90;;;12.00;99.90;;;;;;5111036;28;20396;-75
2022/10/21 06:09:27;;;;;;;56.17;24.63;;;12.00;99.90;;;;;;5110293;28;20407;-74
2022/10/21 06:11:53;;;;;;;58.63;23.90;;;12.10;99.90;;;;;;5110408;27;20401;-75
2022/10/21 06:14:19;;;;;;;51.85;23.20;;;12.00;99.90;;;;;;5110712;27;20403;-75
2022/10/21 06:16:44;;;;;;;57.40;23.10;;;12.10;99.90;;;;;;5105257;27;20405;-74
2022/10/21 06:19:10;;;;;;;52.67;23.27;;;12.00;99.90;;;;;;5101577;27;20404;-74
2022/10/21 06:21:36;;;;;;;56.03;23.03;;;12.00;99.90;;;;;;5110043;28;20432;-72
2022/10/21 06:24:01;;;;;;;58.20;24.15;;;12.00;99.90;;;;;;5110309;28;20396;-73
2022/10/21 06:26:27;;;;;;;48.30;22.43;;;12.00;99.90;;;;;;5112141;27;20803;-73
2022/10/21 06:28:53;;;;;;;52.67;22.95;;;12.00;99.90;;;;;;5103618;27;20427;-75
2022/10/21 06:31:20;;;;;;;54.13;22.50;;;12.00;99.90;;;;;;5110187;27;20406;-74
2022/10/21 06:33:46;;;;;;;51.67;23.30;;;11.90;99.90;;;;;;5108487;28;20765;-73
2022/10/21 06:36:11;;;;;;;46.92;22.48;;;11.90;99.90;;;;;;5109219;28;20412;-73
2022/10/21 06:38:37;;;;;;;49.42;23.23;;;11.90;99.90;;;;;;5108467;27;20404;-74
2022/10/21 06:41:06;;;;;;;48.70;22.70;;;11.90;99.90;;;;;;5091853;28;20442;-73
2022/10/21 06:43:31;;;;;;;62.70;24.00;;;11.90;99.90;;;;;;5110076;28;20803;-73
2022/10/21 06:46:01;;;;;;;52.70;23.27;;;11.90;99.90;;;;;;5109876;28;20396;-73
2022/10/21 06:48:27;;;;;;;48.33;22.30;;;11.90;99.90;;;;;;5107974;28;20897;-73
2022/10/21 06:51:04;;;;;;;53.60;23.33;;;11.90;99.90;;;;;;5109799;27;20398;-73
2022/10/21 06:53:30;;;;;;;49.45;22.90;;;11.90;99.90;;;;;;5102455;28;20439;-73
2022/10/21 06:56:06;;;;;;;53.03;23.77;;;11.90;99.90;;;;;;5109222;28;20491;-73
2022/10/21 06:58:33;;;;;;;53.42;23.48;;;11.90;99.90;;;;;;5109874;27;20487;-73
2022/10/21 07:01:04;;;;;;;54.58;23.67;;;12.00;99.90;;;;;;5109974;27;20437;-74
2022/10/21 07:03:30;;;;;;;52.35;22.90;;;12.00;99.90;;;;;;5109677;28;20542;-73
2022/10/21 07:05:59;;;;;;;65.63;24.63;;;12.00;99.90;;;;;;5110925;27;20487;-73
2022/10/21 07:08:28;;;;;;;55.33;23.30;;;12.00;99.90;;;;;;5112166;27;20408;-73
2022/10/21 07:10:54;;;;;;;47.10;22.15;;;12.10;99.90;;;;;;5109220;27;20449;-73
2022/10/21 07:13:21;;;;;;;51.72;22.95;;;12.10;99.90;;;;;;5109731;28;20408;-73
2022/10/21 07:15:47;;;;;;;48.88;22.02;;;12.00;99.90;;;;;;5109979;28;20404;-73
2022/10/21 07:18:13;;;;;;;45.92;21.88;;;12.00;99.90;;;;;;5109671;28;20810;-73
2022/10/21 07:20:38;;;;;;;49.90;22.30;;;12.00;99.90;;;;;;5110212;28;20428;-73
2022/10/21 07:23:04;;;;;;;54.05;22.15;;;12.00;99.90;;;;;;5109118;27;20419;-73
2022/10/21 07:25:29;;;;;;;52.90;23.00;;;12.00;99.90;;;;;;5108334;28;20480;-73
2022/10/21 07:27:55;;;;;;;54.88;22.75;;;12.00;99.90;;;;;;5109702;27;20408;-73
2022/10/21 07:30:22;;;;;;;55.13;23.07;;;12.00;99.90;;;;;;5109610;28;20969;-73
2022/10/21 07:32:47;;;;;;;50.30;22.05;;;12.00;99.90;;;;;;5096593;28;20412;-73
2022/10/21 07:35:13;;;;;;;52.20;22.07;;;12.00;99.90;;;;;;5105108;28;20813;-73
2022/10/21 07:37:39;;;;;;;48.83;22.13;;;12.10;99.90;;;;;;5108925;28;20434;-73
2022/10/21 07:40:07;;;;;;;49.20;22.10;;;12.10;99.90;;;;;;5111613;27;20436;-73
2022/10/21 07:42:33;;;;;;;50.13;22.75;;;12.10;99.90;;;;;;5108827;28;20439;-73
2022/10/21 07:45:00;;;;;;;49.17;22.63;;;12.20;99.90;;;;;;5109237;28;20428;-73
2022/10/21 07:47:26;;;;;;;45.88;21.60;;;12.20;99.90;;;;;;5107004;28;20997;-73
2022/10/21 07:49:51;;;;;;;51.85;22.48;;;12.20;99.90;;;;;;5107918;28;20408;-73
2022/10/21 07:52:17;;;;;;;51.05;22.52;;;12.30;99.90;;;;;;5107335;28;20491;-73
2022/10/21 07:54:43;;;;;;;44.87;21.13;;;12.30;99.90;;;;;;5108718;28;20770;-73
2022/10/21 07:57:09;;;;;;;44.97;21.45;;;12.30;99.90;;;;;;5107513;28;20778;-73
2022/10/21 07:59:35;;;;;;;40.43;20.10;;;12.30;99.90;;;;;;5107516;28;20842;-73
2022/10/21 08:02:01;;;;;;;42.83;21.77;;;12.40;99.90;;;;;;5109083;28;20408;-73
2022/10/21 08:04:30;;;;;;;46.92;21.27;;;12.40;99.90;;;;;;5107665;28;20407;-73
2022/10/21 08:06:57;;;;;;;44.78;20.98;;;12.40;99.90;;;;;;5107318;28;20488;-73
2022/10/21 08:09:22;;;;;;;47.05;22.02;;;12.40;99.90;;;;;;5107618;28;20481;-73
2022/10/21 08:11:48;;;;;;;44.70;21.97;;;12.50;99.90;;;;;;5121073;27;20968;-73
2022/10/21 08:14:14;;;;;;;48.65;22.13;;;12.50;99.90;;;;;;5111324;27;20752;-72
2022/10/21 08:16:40;;;;;;;44.30;21.27;;;12.60;99.90;;;;;;5092164;28;20432;-73
2022/10/21 08:19:07;;;;;;;48.45;21.23;;;12.60;99.90;;;;;;5108073;28;20401;-73
2022/10/21 08:21:33;;;;;;;47.78;21.58;;;12.60;99.90;;;;;;5107400;28;20428;-73
2022/10/21 08:24:01;;;;;;;42.47;21.05;;;12.70;99.90;;;;;;5108425;28;20878;-73
2022/10/21 08:26:27;;;;;;;47.83;20.95;;;12.70;99.90;;;;;;5107893;28;20758;-73
2022/10/21 08:28:52;;;;;;;42.58;20.88;;;12.80;99.90;;;;;;5107516;28;20400;-73
2022/10/21 08:31:20;;;;;;;40.10;20.73;;;12.90;99.90;;;;;;5108082;28;20411;-73
2022/10/21 08:33:46;;;;;;;42.33;21.13;;;13.00;99.90;;;;;;5108487;28;20453;-73
2022/10/21 08:36:22;;;;;;;40.90;21.08;;;13.10;99.90;;;;;;5107660;28;20778;-73
2022/10/21 08:38:48;;;;;;;41.20;20.83;;;13.20;99.90;;;;;;5114884;28;20410;-73
2022/10/21 08:41:28;;;;;;;43.90;21.55;;;13.30;99.90;;;;;;5106413;28;20431;-73
2022/10/21 08:43:59;;;;;;;45.53;21.00;;;13.40;99.90;;;;;;5107586;28;20462;-73
2022/10/21 08:46:32;;;;;;;38.28;20.30;;;13.50;99.90;;;;;;5106927;28;20977;-73
2022/10/21 08:49:01;;;;;;;40.70;20.53;;;13.60;99.90;;;;;;5111462;28;20392;-73
2022/10/21 08:51:35;;;;;;;36.60;20.25;;;13.60;99.90;;;;;;5112918;27;20400;-73
2022/10/21 08:54:11;;;;;;;34.03;19.20;;;13.80;99.90;;;;;;5112575;28;20829;-73
2022/10/21 08:56:37;;;;;;;35.42;19.10;;;14.10;99.90;;;;;;5112622;28;21563;-73
2022/10/21 08:59:02;;;;;;;27.70;17.60;;;14.60;99.90;;;;;;5106116;28;20431;-73
2022/10/21 09:01:36;;;;;;;26.57;15.90;;;15.20;99.90;;;;;;5112356;28;20447;-73
2022/10/21 09:04:25;;;;;;;28.55;16.33;;;15.60;99.90;;;;;;5093702;28;20404;-73
2022/10/21 09:07:02;;;;;;;22.35;15.07;;;15.70;99.90;;;;;;5111929;28;20816;-73
2022/10/21 09:09:47;;;;;;;21.25;14.30;;;15.80;99.90;;;;;;5094284;28;20487;-73
2022/10/21 09:12:25;;;;;;;18.83;13.95;;;16.10;99.90;;;;;;5099207;28;20412;-74
2022/10/21 09:15:08;;;;;;;19.27;12.63;;;16.30;99.90;;;;;;5111993;28;20400;-73
2022/10/21 09:18:02;;;;;;;23.67;13.85;;;16.20;99.90;;;;;;5112326;28;20754;-73
2022/10/21 09:20:28;;;;;;;21.27;13.75;;;16.10;99.90;;;;;;5101981;28;20432;-73
2022/10/21 09:23:38;;;;;;;22.42;13.90;;;16.20;99.90;;;;;;5111873;27;20404;-74
2022/10/21 09:26:32;;;;;;;20.03;12.90;;;16.40;99.90;;;;;;5077224;28;20436;-73
2022/10/21 09:29:10;;;;;;;19.58;13.60;;;16.70;99.90;;;;;;5103984;28;20909;-74
2022/10/21 09:31:36;;;;;;;18.83;13.10;;;16.90;99.90;;;;;;5110116;28;20408;-73
2022/10/21 09:34:05;;;;;;;16.77;11.60;;;17.40;99.90;;;;;;5110049;28;20530;-73
2022/10/21 09:36:37;;;;;;;16.95;11.60;;;17.90;99.90;;;;;;5110035;27;20404;-74
2022/10/21 09:39:13;;;;;;;16.42;11.38;;;18.50;99.90;;;;;;5110559;28;20421;-74
2022/10/21 09:41:43;;;;;;;14.70;9.90;;;19.30;99.90;;;;;;5091901;28;20432;-74
2022/10/21 09:44:20;;;;;;;14.87;9.90;;;19.90;99.90;;;;;;5110887;28;20474;-74
2022/10/21 09:46:47;;;;;;;15.05;10.32;;;20.20;99.90;;;;;;5113360;27;20437;-74
2022/10/21 09:49:28;;;;;;;14.98;9.65;;;20.40;99.90;;;;;;5111160;27;20912;-74
2022/10/21 09:51:58;;;;;;;15.55;9.68;;;20.20;99.90;;;;;;5092702;28;20412;-74
2022/10/21 09:54:26;;;;;;;15.95;9.30;;;20.00;99.90;;;;;;5109797;28;20480;-73
2022/10/21 09:57:13;;;;;;;15.30;9.30;;;19.90;99.90;;;;;;5109928;28;20546;-74
2022/10/21 10:00:14;;;;;;;13.35;9.27;;;19.80;99.90;;;;;;5109505;28;20491;-73
2022/10/21 10:02:43;;;;;;;14.68;9.52;;;19.50;99.90;;;;;;5077751;28;20410;-73
2022/10/21 10:05:41;;;;;;;13.27;9.35;;;19.20;99.90;;;;;;5084965;28;20408;-73
2022/10/21 10:08:39;;;;;;;17.15;9.43;;;18.90;99.90;;;;;;5111128;28;20404;-73
2022/10/21 10:11:10;;;;;;;14.43;9.10;;;18.80;99.90;;;;;;5111246;28;20477;-73
2022/10/21 10:13:47;;;;;;;13.87;8.50;;;18.80;99.90;;;;;;5109339;28;20416;-73
2022/10/21 10:16:21;;;;;;;15.60;9.63;;;18.60;99.90;;;;;;5110338;28;20491;-73
2022/10/21 10:18:49;;;;;;;13.57;9.13;;;18.60;99.90;;;;;;5111150;28;20412;-73
2022/10/21 10:21:19;;;;;;;13.73;9.45;;;18.50;99.90;;;;;;5109041;28;20949;-73
2022/10/21 10:23:54;;;;;;;14.77;9.05;;;18.50;99.90;;;;;;5110973;28;20419;-73
2022/10/21 10:26:31;;;;;;;12.70;8.93;;;18.50;99.90;;;;;;5109977;28;20757;-73
2022/10/21 10:29:09;;;;;;;14.48;8.48;;;18.50;99.90;;;;;;5110591;28;20461;-73
2022/10/21 10:31:36;;;;;;;15.43;8.90;;;18.60;99.90;;;;;;5103562;28;20408;-73
2022/10/21 10:34:19;;;;;;;15.50;8.25;;;18.70;99.90;;;;;;5111097;28;20401;-73
2022/10/21 10:36:48;;;;;;;13.73;7.72;;;18.80;99.90;;;;;;5120107;27;20800;-73
2022/10/21 10:39:20;;;;;;;12.80;8.25;;;18.70;99.90;;;;;;5109915;28;20409;-73
2022/10/21 10:41:48;;;;;;;13.90;8.35;;;18.80;99.90;;;;;;5109104;28;20435;-73
2022/10/21 10:44:26;;;;;;;12.45;8.05;;;19.10;99.90;;;;;;5110345;28;20413;-73
2022/10/21 10:46:57;;;;;;;13.40;8.38;;;19.50;99.90;;;;;;5110285;28;20400;-73
2022/10/21 10:49:24;;;;;;;11.27;7.20;;;19.90;99.90;;;;;;5095667;28;20416;-73
2022/10/21 10:52:03;;;;;;;11.77;7.55;;;20.40;99.90;;;;;;5109718;28;20404;-73
2022/10/21 10:54:29;;;;;;;12.75;7.95;;;20.70;99.90;;;;;;5109919;28;20408;-73
2022/10/21 10:56:56;;;;;;;11.60;7.57;;;20.90;99.90;;;;;;5109504;28;20404;-73
2022/10/21 10:59:27;;;;;;;12.23;7.40;;;20.90;99.90;;;;;;5103372;28;20419;-73
2022/10/21 11:01:58;;;;;;;12.02;7.22;;;20.70;99.90;;;;;;5109304;27;20432;-74
2022/10/21 11:04:36;;;;;;;10.73;7.50;;;20.60;99.90;;;;;;5109801;28;20412;-73
2022/10/21 11:07:22;;;;;;;11.23;7.97;;;20.50;99.90;;;;;;5113725;27;20492;-73
2022/10/21 11:09:51;;;;;;;12.93;8.20;;;20.20;99.90;;;;;;5107183;28;20399;-73
2022/10/21 11:12:22;;;;;;;13.02;8.52;;;19.80;99.90;;;;;;5090611;28;20978;-73
2022/10/21 11:14:53;;;;;;;12.27;8.27;;;19.50;99.90;;;;;;5108461;28;20413;-73
2022/10/21 11:17:21;;;;;;;11.60;7.88;;;19.20;99.90;;;;;;5109819;28;20480;-73
2022/10/21 11:20:06;;;;;;;14.07;8.63;;;19.00;99.90;;;;;;5109384;27;20455;-73
2022/10/21 11:22:51;;;;;;;13.48;9.25;;;18.80;99.90;;;;;;5109208;27;20405;-73
2022/10/21 11:25:48;;;;;;;12.55;8.88;;;18.70;99.90;;;;;;5098904;28;20921;-73
2022/10/21 11:28:26;;;;;;;11.43;9.07;;;18.60;99.90;;;;;;5104735;28;20408;-73
2022/10/21 11:31:03;;;;;;;13.63;8.97;;;18.50;99.90;;;;;;5108522;28;20404;-73
2022/10/21 11:34:06;;;;;;;12.07;9.00;;;18.40;99.90;;;;;;5108109;28;20754;-73
2022/10/21 11:36:36;;;;;;;13.70;8.82;;;18.30;99.90;;;;;;5085642;28;20784;-73
2022/10/21 11:39:27;;;;;;;11.97;9.13;;;18.30;99.90;;;;;;5107778;28;20408;-73
2022/10/21 11:42:04;;;;;;;12.98;9.32;;;18.30;99.90;;;;;;5108951;28;20852;-73
2022/10/21 11:44:58;;;;;;;12.85;8.52;;;18.30;99.90;;;;;;5120659;27;20408;-73
2022/10/21 11:47:41;;;;;;;14.68;9.43;;;18.20;99.90;;;;;;5107262;28;20790;-73
2022/10/21 11:50:57;;;;;;;13.77;8.95;;;18.30;99.90;;;;;;5108958;28;20396;-73
2022/10/21 11:53:39;;;;;;;13.57;8.88;;;18.30;99.90;;;;;;5084789;28;20492;-73
2022/10/21 11:56:27;;;;;;;12.73;8.40;;;18.30;99.90;;;;;;5096029;28;20408;-73
2022/10/21 11:58:59;;;;;;;12.98;8.18;;;18.30;99.90;;;;;;5113243;27;20408;-73
2022/10/21 12:01:32;;;;;;;14.38;8.48;;;18.40;99.90;;;;;;5107380;28;20459;-73
2022/10/21 12:04:28;;;;;;;12.57;7.90;;;18.40;99.90;;;;;;5118901;27;20450;-73
2022/10/21 12:06:59;;;;;;;12.10;8.63;;;18.60;99.90;;;;;;5094519;28;20491;-73
2022/10/21 12:09:28;;;;;;;12.13;8.30;;;18.70;99.90;;;;;;5108781;28;20784;-73
2022/10/21 12:11:59;;;;;;;12.55;8.55;;;18.70;99.90;;;;;;5108209;28;20412;-73
2022/10/21 12:14:37;;;;;;;13.73;8.48;;;18.80;99.90;;;;;;5108448;27;20503;-73
2022/10/21 12:17:07;;;;;;;12.30;8.75;;;18.80;99.90;;;;;;5108822;28;20397;-73
2022/10/21 12:19:35;;;;;;;12.85;8.50;;;18.70;99.90;;;;;;5108338;28;20461;-73
2022/10/21 12:22:02;;;;;;;10.73;8.20;;;18.60;99.90;;;;;;5106431;28;20929;-73
2022/10/21 12:24:54;;;;;;;12.15;8.45;;;18.50;99.90;;;;;;5106762;28;20465;-73
2022/10/21 12:27:46;;;;;;;12.65;8.45;;;18.40;99.90;;;;;;5078120;28;20406;-73
2022/10/21 12:30:44;;;;;;;13.80;8.30;;;18.30;99.90;;;;;;5096541;28;20495;-73
2022/10/21 12:33:27;;;;;;;12.95;7.97;;;18.20;99.90;;;;;;5053505;28;20986;-73
2022/10/21 12:35:56;;;;;;;11.52;8.45;;;18.10;99.90;;;;;;5121300;27;20411;-73
2022/10/21 12:38:23;;;;;;;12.35;8.07;;;18.00;99.90;;;;;;5111734;28;20475;-73
2022/10/21 12:41:10;;;;;;;11.15;8.10;;;18.00;99.90;;;;;;5109887;28;20428;-73
2022/10/21 12:43:37;;;;;;;15.15;8.32;;;17.90;99.90;;;;;;5107102;28;20405;-73
2022/10/21 12:46:09;;;;;;;13.63;7.88;;;17.80;99.90;;;;;;5094999;28;20392;-73
2022/10/21 12:48:47;;;;;;;12.85;8.13;;;17.80;99.90;;;;;;5107210;28;20901;-73